Algernon, Nebraska
Current Conditions -  °F | °C
As of 2:53 PM on Tuesday 21 Oct 2014 (Local Time) from KBBW Reporting Station
Clear Clear  
Wind Chill: 24°   Ceiling: Unl
Heat Index: 24°   Visibility: 10mi
Dew Point:   Wind: 21mph
Humidity: 33%   Direction: 200°SSW
Pressure: 29.97"   Gusts: 26mph
Location:  41.1632°N, 99.3112°W
Report Text: KBBW 211953Z AUTO 20018G23KT 10SM CLR 24/07 A2997 RMK AO2 RAE1854 SLP136 P0000 T02440072
Loading
Personal Weather Stations






























Interactive Weather Map
Tropical Storm Tracking
New forecast layout! Learn more

10-Day Weather Forecast

Advertisements
Track Severe Weather on mobile